createdAt,value
2022-09-16T00:00:46.435Z,11.87
2022-09-16T00:03:13.694Z,11.89
2022-09-16T00:05:45.716Z,11.95
2022-09-16T00:08:12.464Z,11.96
2022-09-16T00:10:39.415Z,11.99
2022-09-16T00:13:06.059Z,12.01
2022-09-16T00:15:32.800Z,12.00
2022-09-16T00:17:59.809Z,11.99
2022-09-16T00:20:27.541Z,12.02
2022-09-16T00:22:54.569Z,12.05
2022-09-16T00:25:21.564Z,12.09
2022-09-16T00:27:51.142Z,12.10
2022-09-16T00:30:17.979Z,12.10
2022-09-16T00:32:45.033Z,12.15
2022-09-16T00:35:12.165Z,12.17
2022-09-16T00:37:39.068Z,12.15
2022-09-16T00:40:06.613Z,12.12
2022-09-16T00:42:40.410Z,12.13
2022-09-16T00:45:31.722Z,12.15
2022-09-16T00:48:08.017Z,12.17
2022-09-16T00:50:45.145Z,12.18
2022-09-16T00:53:17.886Z,12.17
2022-09-16T00:55:45.406Z,12.16
2022-09-16T00:58:18.976Z,12.14
2022-09-16T01:00:45.940Z,12.11
2022-09-16T01:03:12.568Z,12.14
2022-09-16T01:05:39.678Z,12.20
2022-09-16T01:08:06.292Z,12.24
2022-09-16T01:10:33.138Z,12.26
2022-09-16T01:13:06.495Z,12.30
2022-09-16T01:15:51.742Z,12.31
2022-09-16T01:18:47.984Z,12.30
2022-09-16T01:21:45.736Z,12.26
2022-09-16T01:24:52.185Z,12.22
2022-09-16T01:27:21.848Z,12.15
2022-09-16T01:30:14.063Z,12.10
2022-09-16T01:33:19.241Z,12.13
2022-09-16T01:36:08.792Z,12.14
2022-09-16T01:38:49.991Z,12.14
2022-09-16T01:41:16.550Z,12.18
2022-09-16T01:44:04.170Z,12.14
2022-09-16T01:47:29.753Z,12.21
2022-09-16T01:50:15.785Z,12.23
2022-09-16T01:53:00.327Z,12.21
2022-09-16T01:55:39.450Z,12.15
2022-09-16T01:58:27.504Z,12.14
2022-09-16T02:01:08.200Z,12.15
2022-09-16T02:03:39.393Z,12.10
2022-09-16T02:06:10.092Z,12.16
2022-09-16T02:08:42.119Z,12.14
2022-09-16T02:11:12.481Z,12.17
2022-09-16T02:13:44.091Z,12.15
2022-09-16T02:16:15.287Z,12.08
2022-09-16T02:18:47.752Z,12.01
2022-09-16T02:21:16.259Z,12.07
2022-09-16T02:23:50.147Z,12.07
2022-09-16T02:26:21.259Z,11.95
2022-09-16T02:28:50.943Z,12.06
2022-09-16T02:31:24.901Z,12.00
2022-09-16T02:33:57.228Z,12.00
2022-09-16T02:36:26.553Z,12.11
2022-09-16T02:39:09.674Z,12.06
2022-09-16T02:41:41.396Z,12.02
2022-09-16T02:44:09.668Z,12.08
2022-09-16T02:46:45.537Z,12.09
2022-09-16T02:49:24.913Z,11.99
2022-09-16T02:51:51.506Z,12.02
2022-09-16T02:54:46.093Z,12.02
2022-09-16T02:57:13.877Z,11.96
2022-09-16T02:59:41.568Z,11.96
2022-09-16T03:02:08.269Z,11.91
2022-09-16T03:04:35.793Z,11.91
2022-09-16T03:07:07.880Z,11.99
2022-09-16T03:09:35.874Z,11.95
2022-09-16T03:12:16.488Z,11.89
2022-09-16T03:14:53.149Z,11.93
2022-09-16T03:17:25.733Z,11.90
2022-09-16T03:20:14.158Z,11.86
2022-09-16T03:22:46.786Z,11.86
2022-09-16T03:25:23.864Z,11.77
2022-09-16T03:27:55.401Z,11.75
2022-09-16T03:30:22.186Z,11.68
2022-09-16T03:33:00.598Z,11.80
2022-09-16T03:35:37.139Z,11.75
2022-09-16T03:38:06.609Z,11.76
2022-09-16T03:40:34.507Z,11.76
2022-09-16T03:43:09.473Z,11.76
2022-09-16T03:45:36.140Z,11.82
2022-09-16T03:48:02.920Z,11.78
2022-09-16T03:50:29.571Z,11.89
2022-09-16T03:52:56.168Z,11.82
2022-09-16T03:55:22.857Z,11.84
2022-09-16T03:57:49.492Z,11.84
2022-09-16T04:00:16.227Z,11.89
2022-09-16T04:02:42.863Z,11.94
2022-09-16T04:05:09.718Z,11.89
2022-09-16T04:07:36.790Z,11.98
2022-09-16T04:10:05.218Z,11.95
2022-09-16T04:12:32.058Z,11.84
2022-09-16T04:15:00.778Z,11.82
2022-09-16T04:17:27.691Z,11.81
2022-09-16T04:19:54.342Z,11.84
2022-09-16T04:22:20.946Z,11.79
2022-09-16T04:24:47.632Z,11.84
2022-09-16T04:27:14.263Z,11.84
2022-09-16T04:29:40.915Z,11.88
2022-09-16T04:32:07.611Z,11.88
2022-09-16T04:34:34.289Z,11.84
2022-09-16T04:37:00.919Z,11.70
2022-09-16T04:39:27.609Z,11.74
2022-09-16T04:41:54.243Z,11.69
2022-09-16T04:44:20.943Z,11.71
2022-09-16T04:46:47.709Z,11.66
2022-09-16T04:49:14.402Z,11.57
2022-09-16T04:51:40.993Z,11.56
2022-09-16T04:54:07.662Z,11.59
2022-09-16T04:56:34.423Z,11.59
2022-09-16T04:59:03.826Z,11.71
2022-09-16T05:01:33.107Z,11.77
2022-09-16T05:04:02.693Z,11.80
2022-09-16T05:06:32.487Z,11.82
2022-09-16T05:09:01.083Z,11.68
2022-09-16T05:11:30.397Z,11.73
2022-09-16T05:14:01.768Z,11.62
2022-09-16T05:16:29.154Z,11.73
2022-09-16T05:19:00.722Z,11.77
2022-09-16T05:21:28.969Z,11.64
2022-09-16T05:24:00.617Z,11.71
2022-09-16T05:26:29.680Z,11.74
2022-09-16T05:28:56.325Z,11.74
2022-09-16T05:31:28.176Z,11.76
2022-09-16T05:33:59.710Z,11.87
2022-09-16T05:36:28.201Z,11.79
2022-09-16T05:39:21.124Z,11.92
2022-09-16T05:41:42.680Z,11.97
2022-09-16T05:44:09.292Z,11.97
2022-09-16T05:46:36.263Z,11.93
2022-09-16T05:49:03.441Z,11.91
2022-09-16T05:51:31.084Z,11.82
2022-09-16T05:53:59.363Z,11.83
2022-09-16T05:56:29.081Z,11.87
2022-09-16T05:58:58.214Z,11.94
2022-09-16T06:01:28.540Z,11.92
2022-09-16T06:03:55.500Z,11.93
2022-09-16T06:06:33.953Z,11.94
2022-09-16T06:09:09.386Z,11.89
2022-09-16T06:11:38.450Z,12.02
2022-09-16T06:14:06.165Z,11.96
2022-09-16T06:16:33.325Z,12.01
2022-09-16T06:19:02.120Z,12.11
2022-09-16T06:21:29.907Z,12.12
2022-09-16T06:23:57.188Z,12.17
2022-09-16T06:26:26.384Z,12.19
2022-09-16T06:28:53.873Z,12.19
2022-09-16T06:31:23.804Z,12.19
2022-09-16T06:33:51.128Z,12.28
2022-09-16T06:36:23.317Z,12.25
2022-09-16T06:38:51.260Z,12.17
2022-09-16T06:41:19.984Z,12.16
2022-09-16T06:43:47.669Z,12.17
2022-09-16T06:46:20.480Z,12.31
2022-09-16T06:48:52.702Z,12.38
2022-09-16T06:51:30.193Z,12.37
2022-09-16T06:54:02.575Z,12.31
2022-09-16T06:56:29.427Z,12.30
2022-09-16T06:58:57.288Z,12.43
2022-09-16T07:01:26.837Z,12.36
2022-09-16T07:03:54.496Z,12.14
2022-09-16T07:06:26.658Z,12.13
2022-09-16T07:09:05.884Z,12.11
2022-09-16T07:11:32.531Z,12.04
2022-09-16T07:14:00.423Z,12.01
2022-09-16T07:16:27.170Z,12.10
2022-09-16T07:18:58.719Z,12.04
2022-09-16T07:21:30.438Z,12.06
2022-09-16T07:24:02.569Z,12.06
2022-09-16T07:26:31.604Z,11.90
2022-09-16T07:29:03.797Z,11.92
2022-09-16T07:31:33.684Z,11.84
2022-09-16T07:34:04.742Z,11.81
2022-09-16T07:36:38.253Z,11.67
2022-09-16T07:39:05.961Z,11.75
2022-09-16T07:41:35.362Z,11.82
2022-09-16T07:44:03.113Z,11.78
2022-09-16T07:46:32.960Z,11.75
2022-09-16T07:49:01.594Z,11.72
2022-09-16T07:51:29.533Z,11.71
2022-09-16T07:54:02.309Z,11.71
2022-09-16T07:56:31.320Z,11.71
2022-09-16T07:58:58.294Z,11.68
2022-09-16T08:01:25.376Z,11.62
2022-09-16T08:03:52.672Z,11.59
2022-09-16T08:06:22.645Z,11.58
2022-09-16T08:08:53.122Z,11.51
2022-09-16T08:11:20.230Z,11.57
2022-09-16T08:13:47.246Z,11.56
2022-09-16T08:16:17.649Z,11.57
2022-09-16T08:18:45.325Z,11.57
2022-09-16T08:21:14.820Z,11.46
2022-09-16T08:23:42.050Z,11.44
2022-09-16T08:26:10.844Z,11.45
2022-09-16T08:28:45.529Z,11.44
2022-09-16T08:31:24.564Z,11.36
2022-09-16T08:33:51.337Z,11.31
2022-09-16T08:36:20.938Z,11.24
2022-09-16T08:38:50.075Z,11.08
2022-09-16T08:41:35.390Z,10.97
2022-09-16T08:44:40.341Z,10.89
2022-09-16T08:47:31.944Z,10.82
2022-09-16T08:50:03.219Z,10.81
2022-09-16T08:52:35.535Z,10.83
2022-09-16T08:55:15.814Z,10.92
2022-09-16T08:57:55.864Z,11.12
2022-09-16T09:00:22.631Z,11.16
2022-09-16T09:03:07.674Z,11.14
2022-09-16T09:05:50.136Z,11.10
2022-09-16T09:08:19.747Z,11.18
2022-09-16T09:10:52.099Z,11.22
2022-09-16T09:13:45.072Z,11.31
2022-09-16T09:16:36.886Z,11.36
2022-09-16T09:19:15.766Z,11.47
2022-09-16T09:21:56.285Z,11.53
2022-09-16T09:24:45.945Z,11.49
2022-09-16T09:27:16.571Z,11.45
2022-09-16T09:30:03.225Z,11.45
2022-09-16T09:33:44.967Z,11.46
2022-09-16T09:36:29.781Z,11.50
2022-09-16T09:39:05.473Z,11.57
2022-09-16T09:41:50.441Z,11.58
2022-09-16T09:44:35.362Z,11.60
2022-09-16T09:47:08.569Z,11.73
2022-09-16T09:49:46.677Z,11.81
2022-09-16T09:52:26.108Z,11.83
2022-09-16T09:54:53.110Z,11.87
2022-09-16T09:57:38.014Z,11.87
2022-09-16T10:00:14.869Z,11.85
2022-09-16T10:02:48.830Z,11.84
2022-09-16T10:05:27.009Z,11.87
2022-09-16T10:07:58.624Z,11.88
2022-09-16T10:10:29.582Z,11.99
2022-09-16T10:13:07.636Z,11.89
2022-09-16T10:15:34.501Z,11.82
2022-09-16T10:18:03.360Z,11.87
2022-09-16T10:20:43.465Z,11.90
2022-09-16T10:23:14.088Z,11.80
2022-09-16T10:25:42.182Z,11.81
2022-09-16T10:28:23.873Z,11.92
2022-09-16T10:30:56.509Z,11.91
2022-09-16T10:33:31.216Z,11.97
2022-09-16T10:36:02.679Z,11.97
2022-09-16T10:38:39.904Z,11.95
2022-09-16T10:41:10.061Z,12.05
2022-09-16T10:43:39.244Z,12.11
2022-09-16T10:46:06.580Z,12.08
2022-09-16T10:48:35.000Z,12.18
2022-09-16T10:51:04.921Z,12.34
2022-09-16T10:53:35.285Z,12.43
2022-09-16T10:56:07.772Z,12.43
2022-09-16T10:58:34.403Z,12.39
2022-09-16T11:01:11.340Z,12.42
2022-09-16T11:03:41.559Z,12.44
2022-09-16T11:06:23.369Z,12.44
2022-09-16T11:08:59.042Z,12.35
2022-09-16T11:11:53.588Z,12.32
2022-09-16T11:14:41.326Z,12.30
2022-09-16T11:17:16.416Z,12.39
2022-09-16T11:20:26.017Z,12.39
2022-09-16T11:23:12.359Z,12.44
2022-09-16T11:26:03.083Z,12.54
2022-09-16T11:28:44.901Z,12.46
2022-09-16T11:31:29.915Z,12.25
2022-09-16T11:34:20.732Z,12.24
2022-09-16T11:37:01.942Z,12.21
2022-09-16T11:39:43.777Z,12.17
2022-09-16T11:42:10.310Z,12.30
2022-09-16T11:44:52.330Z,12.31
2022-09-16T11:47:21.657Z,12.39
2022-09-16T11:50:00.491Z,12.44
2022-09-16T11:53:01.434Z,12.47
2022-09-16T11:55:46.078Z,12.52
2022-09-16T11:58:21.826Z,12.59
2022-09-16T12:00:51.881Z,12.72
2022-09-16T12:03:41.351Z,13.02
2022-09-16T12:06:17.573Z,13.52
2022-09-16T12:08:59.476Z,14.07
2022-09-16T12:11:38.093Z,14.27
2022-09-16T12:14:26.840Z,14.22
2022-09-16T12:17:01.660Z,14.16
2022-09-16T12:19:34.055Z,14.10
2022-09-16T12:22:11.109Z,13.69
2022-09-16T12:24:42.082Z,13.37
2022-09-16T12:27:30.290Z,13.21
2022-09-16T12:30:05.807Z,13.09
2022-09-16T12:32:50.708Z,13.07
2022-09-16T12:35:26.333Z,13.13
2022-09-16T12:37:54.330Z,13.14
2022-09-16T12:40:24.500Z,13.13
2022-09-16T12:43:18.587Z,13.33
2022-09-16T12:46:03.507Z,13.64
2022-09-16T12:48:38.891Z,13.61
2022-09-16T12:51:28.694Z,13.38
2022-09-16T12:54:16.927Z,13.16
2022-09-16T12:56:58.701Z,13.12
2022-09-16T12:59:38.283Z,13.12
2022-09-16T13:02:24.078Z,13.17
2022-09-16T13:04:54.896Z,13.14
2022-09-16T13:07:27.211Z,13.07
2022-09-16T13:10:02.762Z,13.05
2022-09-16T13:12:43.765Z,13.14
2022-09-16T13:15:25.681Z,13.42
2022-09-16T13:17:53.328Z,14.00
2022-09-16T13:20:26.574Z,14.65
2022-09-16T13:23:17.114Z,15.20
2022-09-16T13:25:55.765Z,15.54
2022-09-16T13:28:32.917Z,15.61
2022-09-16T13:31:33.285Z,14.90
2022-09-16T13:34:00.625Z,14.42
2022-09-16T13:36:27.203Z,14.07
2022-09-16T13:38:59.572Z,14.03
2022-09-16T13:41:41.490Z,14.35
2022-09-16T13:44:37.312Z,14.91
2022-09-16T13:47:15.501Z,15.02
2022-09-16T13:49:56.466Z,14.78
2022-09-16T13:52:31.856Z,14.38
2022-09-16T13:55:10.949Z,14.28
2022-09-16T13:57:56.168Z,14.48
2022-09-16T14:00:35.370Z,14.69
2022-09-16T14:03:31.370Z,14.69
2022-09-16T14:06:36.656Z,14.81
2022-09-16T14:09:15.399Z,14.94
2022-09-16T14:11:48.150Z,14.71
2022-09-16T14:14:45.709Z,14.75
2022-09-16T14:17:20.224Z,14.98
2022-09-16T14:19:49.894Z,15.08
2022-09-16T14:22:19.602Z,15.41
2022-09-16T14:24:48.373Z,15.61
2022-09-16T14:27:36.749Z,15.80
2022-09-16T14:30:15.044Z,15.72
2022-09-16T14:32:41.887Z,15.84
2022-09-16T14:35:26.967Z,15.80
2022-09-16T14:38:03.731Z,15.61
2022-09-16T14:40:30.485Z,15.55
2022-09-16T14:43:07.168Z,15.59
2022-09-16T14:45:37.007Z,15.49
2022-09-16T14:48:09.234Z,15.51
2022-09-16T14:50:43.086Z,15.59
2022-09-16T14:53:34.784Z,15.38
2022-09-16T14:56:02.863Z,15.31
2022-09-16T14:58:32.226Z,15.39
2022-09-16T15:01:06.521Z,15.31
2022-09-16T15:04:09.366Z,15.40
2022-09-16T15:06:44.284Z,15.21
2022-09-16T15:09:49.032Z,15.22
2022-09-16T15:12:33.116Z,15.12
2022-09-16T15:15:05.747Z,15.05
2022-09-16T15:17:32.703Z,14.91
2022-09-16T15:20:00.117Z,14.80
2022-09-16T15:22:28.036Z,14.73
2022-09-16T15:24:58.515Z,14.68
2022-09-16T15:27:28.011Z,14.66
2022-09-16T15:29:59.336Z,14.69
2022-09-16T15:32:29.717Z,14.59
2022-09-16T15:35:12.014Z,14.50
2022-09-16T15:37:38.618Z,14.38
2022-09-16T15:40:22.149Z,14.31
2022-09-16T15:43:01.189Z,14.24
2022-09-16T15:45:28.501Z,14.25
2022-09-16T15:48:01.489Z,14.14
2022-09-16T15:50:31.105Z,13.98
2022-09-16T15:53:35.623Z,13.82
2022-09-16T15:56:25.558Z,13.85
2022-09-16T15:58:58.051Z,13.85
2022-09-16T16:01:27.696Z,13.81
2022-09-16T16:04:03.126Z,13.76
2022-09-16T16:07:09.019Z,13.69
2022-09-16T16:09:39.676Z,13.63
2022-09-16T16:12:11.169Z,13.54
2022-09-16T16:14:39.302Z,13.38
2022-09-16T16:17:18.001Z,13.27
2022-09-16T16:19:46.948Z,13.24
2022-09-16T16:22:14.840Z,13.20
2022-09-16T16:24:42.232Z,13.16
2022-09-16T16:27:10.227Z,13.02
2022-09-16T16:29:38.911Z,12.99
2022-09-16T16:32:11.582Z,13.16
2022-09-16T16:34:43.547Z,13.14
2022-09-16T16:37:28.008Z,13.12
2022-09-16T16:39:59.913Z,12.99
2022-09-16T16:42:28.845Z,12.94
2022-09-16T16:44:56.700Z,12.88
2022-09-16T16:47:26.626Z,12.80
2022-09-16T16:49:53.757Z,12.77
2022-09-16T16:52:20.452Z,12.76
2022-09-16T16:54:47.381Z,12.75
2022-09-16T16:57:14.182Z,12.68
2022-09-16T16:59:40.785Z,12.60
2022-09-16T17:02:11.565Z,12.72
2022-09-16T17:04:38.297Z,12.72
2022-09-16T17:09:52.236Z,12.62
2022-09-16T17:12:18.827Z,12.54
2022-09-16T17:14:45.718Z,12.50
2022-09-16T17:17:12.302Z,12.42
2022-09-16T17:19:38.920Z,12.42
2022-09-16T17:22:05.527Z,12.35
2022-09-16T17:24:33.158Z,12.32
2022-09-16T17:27:00.284Z,12.22
2022-09-16T17:29:26.953Z,12.21
2022-09-16T17:31:55.565Z,12.18
2022-09-16T17:34:22.731Z,12.16
2022-09-16T17:36:49.438Z,12.14
2022-09-16T17:39:20.761Z,12.17
2022-09-16T17:41:48.911Z,12.18
2022-09-16T17:44:17.601Z,12.22
2022-09-16T17:46:45.477Z,12.25
2022-09-16T17:49:18.204Z,12.28
2022-09-16T17:51:45.398Z,12.22
2022-09-16T17:54:12.367Z,12.27
2022-09-16T17:56:39.486Z,12.17
2022-09-16T17:59:06.278Z,12.20
2022-09-16T18:01:33.085Z,12.14
2022-09-16T18:04:00.078Z,12.19
2022-09-16T18:06:31.054Z,12.26
2022-09-16T18:09:05.123Z,12.27
2022-09-16T18:11:31.830Z,12.21
2022-09-16T18:14:01.656Z,12.26
2022-09-16T18:16:29.316Z,12.22
2022-09-16T18:18:58.124Z,12.18
2022-09-16T18:21:25.728Z,12.17
2022-09-16T18:23:57.285Z,12.16
2022-09-16T18:26:24.979Z,12.14
2022-09-16T18:29:10.491Z,12.14
2022-09-16T18:31:46.406Z,12.16
2022-09-16T18:34:14.159Z,12.13
2022-09-16T18:36:40.944Z,12.16
2022-09-16T18:39:12.028Z,11.98
2022-09-16T18:41:40.640Z,11.82
2022-09-16T18:44:23.780Z,11.73
2022-09-16T18:46:50.713Z,11.57
2022-09-16T18:49:18.750Z,11.44
2022-09-16T18:51:51.169Z,11.34
2022-09-16T18:54:28.230Z,11.19
2022-09-16T18:57:00.347Z,11.08
2022-09-16T18:59:29.084Z,11.08
2022-09-16T19:01:58.340Z,11.03
2022-09-16T19:04:31.178Z,11.08
2022-09-16T19:07:05.831Z,11.07
2022-09-16T19:09:33.490Z,11.08
2022-09-16T19:12:01.587Z,11.03
2022-09-16T19:14:28.845Z,10.98
2022-09-16T19:16:55.458Z,10.94
2022-09-16T19:19:22.583Z,10.92
2022-09-16T19:21:49.451Z,10.82
2022-09-16T19:24:24.582Z,10.82
2022-09-16T19:26:54.177Z,10.73
2022-09-16T19:29:21.508Z,10.62
2022-09-16T19:31:51.873Z,10.70
2022-09-16T19:34:19.453Z,10.70
2022-09-16T19:36:46.284Z,10.71
2022-09-16T19:39:13.548Z,10.64
2022-09-16T19:41:41.592Z,10.64
2022-09-16T19:44:12.257Z,10.64
2022-09-16T19:46:40.517Z,10.69
2022-09-16T19:49:08.412Z,10.62
2022-09-16T19:51:35.085Z,10.58
2022-09-16T19:54:03.084Z,10.60
2022-09-16T19:56:33.241Z,10.61
2022-09-16T19:59:01.655Z,10.61
2022-09-16T20:01:33.755Z,10.55
2022-09-16T20:04:01.163Z,10.50
2022-09-16T20:06:39.466Z,10.49
2022-09-16T20:09:11.641Z,10.49
2022-09-16T20:11:39.476Z,10.50
2022-09-16T20:14:11.542Z,10.43
2022-09-16T20:16:39.817Z,10.35
2022-09-16T20:19:10.034Z,10.33
2022-09-16T20:21:37.775Z,10.29
2022-09-16T20:24:06.659Z,10.17
2022-09-16T20:26:34.754Z,10.11
2022-09-16T20:29:01.761Z,10.08
2022-09-16T20:31:32.618Z,10.02
2022-09-16T20:33:59.914Z,9.94
2022-09-16T20:36:30.569Z,9.85
2022-09-16T20:38:59.703Z,9.80
2022-09-16T20:41:29.419Z,9.80
2022-09-16T20:43:56.688Z,9.76
2022-09-16T20:46:28.737Z,9.79
2022-09-16T20:48:57.070Z,9.78
2022-09-16T20:51:26.050Z,9.76
2022-09-16T20:53:53.921Z,9.77
2022-09-16T20:56:21.169Z,9.75
2022-09-16T20:58:48.108Z,9.63
2022-09-16T21:01:23.068Z,9.62
2022-09-16T21:03:55.859Z,9.60
2022-09-16T21:06:24.020Z,9.66
2022-09-16T21:09:05.418Z,9.72
2022-09-16T21:11:33.199Z,9.70
2022-09-16T21:14:02.266Z,9.69
2022-09-16T21:16:31.828Z,9.66
2022-09-16T21:19:01.033Z,9.71
2022-09-16T21:21:29.030Z,9.71
2022-09-16T21:23:57.903Z,9.70
2022-09-16T21:26:31.051Z,9.77
2022-09-16T21:29:00.141Z,9.79
2022-09-16T21:31:28.381Z,9.77
2022-09-16T21:33:56.726Z,9.68
2022-09-16T21:36:24.869Z,9.68
2022-09-16T21:38:51.860Z,9.70
2022-09-16T21:41:21.393Z,9.70
2022-09-16T21:43:55.605Z,9.72
2022-09-16T21:46:41.625Z,9.69
2022-09-16T21:49:19.271Z,9.67
2022-09-16T21:51:46.397Z,9.60
2022-09-16T21:54:15.538Z,9.57
2022-09-16T21:56:44.570Z,9.59
2022-09-16T21:59:11.353Z,9.58
2022-09-16T22:01:38.536Z,9.63
2022-09-16T22:04:11.071Z,9.65
2022-09-16T22:06:38.489Z,9.58
2022-09-16T22:09:08.057Z,9.61
2022-09-16T22:11:38.674Z,9.67
2022-09-16T22:14:05.857Z,9.67
2022-09-16T22:16:35.242Z,9.67
2022-09-16T22:19:07.639Z,9.67
2022-09-16T22:21:38.172Z,9.64
2022-09-16T22:24:06.220Z,9.62
2022-09-16T22:26:33.106Z,9.63
2022-09-16T22:29:00.686Z,9.63
2022-09-16T22:31:30.266Z,9.60
2022-09-16T22:34:00.422Z,9.60
2022-09-16T22:36:32.084Z,9.59
2022-09-16T22:39:02.165Z,9.63
2022-09-16T22:41:29.096Z,9.61
2022-09-16T22:43:56.033Z,9.52
2022-09-16T22:46:26.279Z,9.51
2022-09-16T22:48:55.542Z,9.46
2022-09-16T22:51:22.620Z,9.41
2022-09-16T22:53:49.653Z,9.43
2022-09-16T22:56:26.012Z,9.48
2022-09-16T22:58:55.005Z,9.52
2022-09-16T23:01:24.398Z,9.49
2022-09-16T23:03:53.864Z,9.54
2022-09-16T23:06:21.282Z,9.59
2022-09-16T23:08:48.149Z,9.53
2022-09-16T23:11:20.057Z,9.45
2022-09-16T23:13:50.351Z,9.36
2022-09-16T23:16:21.159Z,9.27
2022-09-16T23:18:49.111Z,9.26
2022-09-16T23:21:18.992Z,9.23
2022-09-16T23:23:49.914Z,9.27
2022-09-16T23:26:22.795Z,9.28
2022-09-16T23:28:58.095Z,9.27
2022-09-16T23:31:27.755Z,9.27
2022-09-16T23:33:55.205Z,9.22
2022-09-16T23:36:23.673Z,9.15
2022-09-16T23:38:50.305Z,9.13
2022-09-16T23:41:20.622Z,9.12
2022-09-16T23:43:49.124Z,9.13
2022-09-16T23:46:19.326Z,9.08
2022-09-16T23:48:46.836Z,9.02
2022-09-16T23:51:14.116Z,8.95
2022-09-16T23:53:42.621Z,8.89
2022-09-16T23:56:12.112Z,8.85
2022-09-16T23:58:39.501Z,8.82
